createdAt,value
2022-08-03T00:00:46.387Z,48.13
2022-08-03T00:03:15.888Z,49.35
2022-08-03T00:06:04.841Z,50.70
2022-08-03T00:08:37.651Z,48.50
2022-08-03T00:11:10.445Z,49.20
2022-08-03T00:13:40.294Z,47.83
2022-08-03T00:16:12.174Z,49.25
2022-08-03T00:18:42.022Z,48.55
2022-08-03T00:21:11.939Z,48.17
2022-08-03T00:23:51.716Z,49.28
2022-08-03T00:26:23.955Z,48.60
2022-08-03T00:28:53.924Z,49.80
2022-08-03T00:31:51.385Z,50.35
2022-08-03T00:34:13.667Z,50.03
2022-08-03T00:36:43.441Z,50.63
2022-08-03T00:39:12.933Z,50.60
2022-08-03T00:41:42.607Z,50.83
2022-08-03T00:44:12.245Z,49.30
2022-08-03T00:46:42.130Z,50.22
2022-08-03T00:49:11.713Z,52.90
2022-08-03T00:51:41.393Z,57.70
2022-08-03T00:54:11.676Z,63.85
2022-08-03T00:56:59.858Z,65.07
2022-08-03T00:59:31.651Z,61.67
2022-08-03T01:02:01.400Z,62.92
2022-08-03T01:04:30.842Z,57.97
2022-08-03T01:07:27.125Z,56.90
2022-08-03T01:10:35.134Z,56.55
2022-08-03T01:14:01.462Z,57.78
2022-08-03T01:16:49.139Z,58.83
2022-08-03T01:19:27.625Z,57.83
2022-08-03T01:22:34.114Z,58.95
2022-08-03T01:25:17.491Z,53.53
2022-08-03T01:28:11.865Z,50.20
2022-08-03T01:30:45.130Z,53.20
2022-08-03T01:33:20.476Z,52.33
2022-08-03T01:36:01.012Z,56.95
2022-08-03T01:38:40.473Z,55.60
2022-08-03T01:41:14.637Z,53.45
2022-08-03T01:44:26.702Z,54.78
2022-08-03T01:46:48.794Z,48.63
2022-08-03T01:49:20.125Z,55.97
2022-08-03T01:52:02.699Z,60.75
2022-08-03T01:54:42.351Z,62.08
2022-08-03T01:57:13.282Z,60.75
2022-08-03T01:59:45.018Z,61.40
2022-08-03T02:02:32.763Z,59.60
2022-08-03T02:05:10.885Z,59.72
2022-08-03T02:07:44.021Z,60.65
2022-08-03T02:10:34.750Z,58.28
2022-08-03T02:13:09.724Z,57.00
2022-08-03T02:15:40.733Z,54.95
2022-08-03T02:18:29.919Z,54.47
2022-08-03T02:21:01.757Z,51.80
2022-08-03T02:23:41.944Z,52.95
2022-08-03T02:26:16.893Z,52.13
2022-08-03T02:28:53.627Z,52.95
2022-08-03T02:31:29.120Z,51.42
2022-08-03T02:34:04.227Z,50.47
2022-08-03T02:36:38.675Z,47.28
2022-08-03T02:39:12.795Z,51.45
2022-08-03T02:41:53.960Z,48.72
2022-08-03T02:44:28.298Z,49.42
2022-08-03T02:47:02.273Z,46.53
2022-08-03T02:49:49.500Z,51.40
2022-08-03T02:52:24.789Z,48.50
2022-08-03T02:54:57.870Z,46.92
2022-08-03T02:57:30.030Z,50.67
2022-08-03T03:00:01.373Z,50.38
2022-08-03T03:02:31.649Z,52.17
2022-08-03T03:05:55.339Z,51.78
2022-08-03T03:07:54.439Z,49.58
2022-08-03T03:10:26.194Z,50.20
2022-08-03T03:12:59.986Z,51.03
2022-08-03T03:15:32.241Z,50.17
2022-08-03T03:18:03.170Z,48.45
2022-08-03T03:20:34.804Z,46.83
2022-08-03T03:23:05.334Z,46.13
2022-08-03T03:25:35.644Z,45.78
2022-08-03T03:28:06.597Z,42.28
2022-08-03T03:30:36.153Z,41.20
2022-08-03T03:33:06.481Z,38.28
2022-08-03T03:35:38.737Z,35.10
2022-08-03T03:38:09.590Z,31.30
2022-08-03T03:40:41.125Z,29.10
2022-08-03T03:43:12.173Z,28.30
2022-08-03T03:45:44.755Z,26.58
2022-08-03T03:48:15.150Z,26.08
2022-08-03T03:50:46.185Z,24.13
2022-08-03T03:53:16.944Z,26.25
2022-08-03T03:55:59.714Z,24.35
2022-08-03T03:58:33.923Z,20.08
2022-08-03T04:01:03.883Z,23.17
2022-08-03T04:03:33.463Z,27.70
2022-08-03T04:06:21.914Z,26.23
2022-08-03T04:09:21.004Z,27.80
2022-08-03T04:11:56.263Z,20.40
2022-08-03T04:14:34.208Z,20.50
2022-08-03T04:17:07.009Z,18.65
2022-08-03T04:19:49.020Z,21.42
2022-08-03T04:22:22.685Z,20.00
2022-08-03T04:25:04.784Z,24.70
2022-08-03T04:30:10.670Z,26.20
2022-08-03T04:32:45.481Z,25.65
2022-08-03T04:35:15.675Z,22.30
2022-08-03T04:37:50.756Z,27.08
2022-08-03T04:40:33.329Z,25.02
2022-08-03T04:43:07.046Z,22.05
2022-08-03T04:45:38.216Z,23.07
2022-08-03T04:48:08.540Z,22.15
2022-08-03T04:50:38.099Z,22.75
2022-08-03T04:53:08.489Z,21.23
2022-08-03T04:55:39.832Z,20.13
2022-08-03T04:58:09.346Z,23.50
2022-08-03T05:00:39.013Z,23.98
2022-08-03T05:03:20.570Z,24.55
2022-08-03T05:06:09.652Z,23.33
2022-08-03T05:08:47.030Z,18.23
2022-08-03T05:11:19.026Z,20.40
2022-08-03T05:13:49.801Z,19.92
2022-08-03T05:16:20.283Z,19.17
2022-08-03T05:18:49.877Z,18.17
2022-08-03T05:21:21.609Z,18.33
2022-08-03T05:23:51.463Z,18.92
2022-08-03T05:26:21.050Z,18.98
2022-08-03T05:28:51.567Z,20.25
2022-08-03T05:31:21.788Z,21.65
2022-08-03T05:33:51.755Z,28.40
2022-08-03T05:36:21.474Z,44.15
2022-08-03T05:38:51.038Z,53.42
2022-08-03T05:41:36.479Z,52.00
2022-08-03T05:44:07.025Z,45.38
2022-08-03T05:46:37.435Z,40.65
2022-08-03T05:49:07.331Z,40.83
2022-08-03T05:51:36.536Z,40.55
2022-08-03T05:54:06.759Z,39.70
2022-08-03T05:56:36.118Z,39.63
2022-08-03T05:59:22.704Z,40.08
2022-08-03T06:01:55.717Z,37.47
2022-08-03T06:04:25.372Z,37.97
2022-08-03T06:06:54.943Z,35.80
2022-08-03T06:09:24.246Z,34.70
2022-08-03T06:12:14.311Z,34.80
2022-08-03T06:14:43.869Z,34.92
2022-08-03T06:17:13.607Z,31.52
2022-08-03T06:19:44.840Z,32.85
2022-08-03T06:22:14.366Z,34.00
2022-08-03T06:24:53.292Z,31.75
2022-08-03T06:27:36.671Z,30.27
2022-08-03T06:30:08.695Z,30.58
2022-08-03T06:32:41.441Z,28.58
2022-08-03T06:35:21.797Z,30.65
2022-08-03T06:37:53.425Z,30.77
2022-08-03T06:40:32.270Z,30.83
2022-08-03T06:43:03.766Z,30.35
2022-08-03T06:45:36.547Z,28.75
2022-08-03T06:48:13.905Z,29.65
2022-08-03T06:50:45.521Z,28.88
2022-08-03T06:53:19.661Z,27.75
2022-08-03T06:55:54.358Z,25.35
2022-08-03T06:58:24.763Z,27.02
2022-08-03T07:00:54.876Z,27.45
2022-08-03T07:03:24.265Z,30.25
2022-08-03T07:05:53.560Z,31.88
2022-08-03T07:08:33.452Z,26.45
2022-08-03T07:11:04.141Z,29.88
2022-08-03T07:13:33.880Z,30.27
2022-08-03T07:16:03.448Z,29.98
2022-08-03T07:18:32.740Z,29.27
2022-08-03T07:21:02.416Z,31.52
2022-08-03T07:23:31.840Z,29.60
2022-08-03T07:26:01.564Z,28.95
2022-08-03T07:28:31.243Z,28.63
2022-08-03T07:31:00.817Z,29.77
2022-08-03T07:33:30.721Z,30.10
2022-08-03T07:36:00.451Z,31.85
2022-08-03T07:38:31.459Z,29.00
2022-08-03T07:41:01.004Z,28.97
2022-08-03T07:43:30.670Z,28.67
2022-08-03T07:46:00.147Z,29.75
2022-08-03T07:48:29.676Z,29.80
2022-08-03T07:50:59.376Z,28.33
2022-08-03T07:53:28.782Z,29.55
2022-08-03T07:55:58.439Z,32.63
2022-08-03T07:58:28.284Z,31.55
2022-08-03T08:00:57.781Z,34.42
2022-08-03T08:03:28.082Z,31.35
2022-08-03T08:06:19.358Z,32.63
2022-08-03T08:08:49.084Z,28.38
2022-08-03T08:11:18.950Z,23.77
2022-08-03T08:13:48.377Z,25.75
2022-08-03T08:16:18.257Z,25.45
2022-08-03T08:18:47.802Z,25.48
2022-08-03T08:21:17.297Z,25.08
2022-08-03T08:23:57.151Z,24.38
2022-08-03T08:26:27.564Z,23.52
2022-08-03T08:28:56.667Z,23.83
2022-08-03T08:31:26.235Z,24.30
2022-08-03T08:34:04.413Z,23.55
2022-08-03T08:36:36.006Z,24.00
2022-08-03T08:39:06.101Z,21.87
2022-08-03T08:41:35.938Z,24.13
2022-08-03T08:44:05.905Z,22.65
2022-08-03T08:46:35.948Z,24.52
2022-08-03T08:49:05.544Z,24.83
2022-08-03T08:51:59.695Z,24.73
2022-08-03T08:54:33.830Z,23.67
2022-08-03T08:57:26.584Z,21.65
2022-08-03T08:59:58.136Z,27.55
2022-08-03T09:02:31.150Z,26.45
2022-08-03T09:05:06.843Z,25.48
2022-08-03T09:07:37.242Z,25.15
2022-08-03T09:10:13.015Z,23.73
2022-08-03T09:12:48.316Z,22.17
2022-08-03T09:15:23.328Z,21.05
2022-08-03T09:17:57.577Z,19.33
2022-08-03T09:20:29.507Z,18.02
2022-08-03T09:23:24.968Z,13.27
2022-08-03T09:26:00.521Z,12.40
2022-08-03T09:29:01.152Z,11.75
2022-08-03T09:31:34.974Z,10.85
2022-08-03T09:34:07.049Z,12.15
2022-08-03T09:36:40.809Z,11.98
2022-08-03T09:39:13.273Z,12.32
2022-08-03T09:41:44.988Z,12.50
2022-08-03T09:44:25.333Z,13.13
2022-08-03T09:46:57.668Z,13.20
2022-08-03T09:49:27.404Z,12.82
2022-08-03T09:52:32.485Z,15.35
2022-08-03T09:54:52.971Z,15.75
2022-08-03T09:57:27.066Z,15.88
2022-08-03T10:00:08.415Z,17.85
2022-08-03T10:02:46.523Z,17.10
2022-08-03T10:05:19.619Z,18.00
2022-08-03T10:07:51.755Z,18.80
2022-08-03T10:10:30.347Z,19.55
2022-08-03T10:13:01.888Z,19.98
2022-08-03T10:16:23.842Z,19.25
2022-08-03T10:18:21.397Z,20.98
2022-08-03T10:21:04.380Z,20.75
2022-08-03T10:23:37.278Z,21.48
2022-08-03T10:26:09.824Z,20.55
2022-08-03T10:28:48.908Z,22.45
2022-08-03T10:31:22.317Z,22.20
2022-08-03T10:33:57.649Z,22.95
2022-08-03T10:36:32.759Z,21.02
2022-08-03T10:39:04.604Z,20.92
2022-08-03T10:41:48.247Z,18.15
2022-08-03T10:44:24.607Z,19.38
2022-08-03T10:46:54.966Z,18.83
2022-08-03T10:49:35.173Z,18.70
2022-08-03T10:52:13.102Z,18.10
2022-08-03T10:55:14.506Z,17.25
2022-08-03T10:57:58.632Z,15.23
2022-08-03T11:00:31.514Z,13.88
2022-08-03T11:03:12.961Z,13.90
2022-08-03T11:05:50.905Z,13.32
2022-08-03T11:08:31.009Z,12.52
2022-08-03T11:11:03.529Z,13.00
2022-08-03T11:13:34.966Z,12.15
2022-08-03T11:16:22.058Z,13.23
2022-08-03T11:19:19.623Z,12.45
2022-08-03T11:21:52.949Z,13.68
2022-08-03T11:24:48.585Z,13.52
2022-08-03T11:27:19.240Z,13.27
2022-08-03T11:30:10.019Z,12.95
2022-08-03T11:32:39.879Z,12.80
2022-08-03T11:35:16.516Z,13.90
2022-08-03T11:38:08.421Z,13.13
2022-08-03T11:40:37.998Z,13.63
2022-08-03T11:43:32.320Z,14.63
2022-08-03T11:46:09.060Z,14.18
2022-08-03T11:48:46.702Z,20.52
2022-08-03T11:51:23.888Z,19.40
2022-08-03T11:53:55.717Z,15.85
2022-08-03T11:56:25.477Z,13.57
2022-08-03T11:59:20.283Z,13.25
2022-08-03T12:01:47.294Z,12.55
2022-08-03T12:04:17.282Z,12.00
2022-08-03T12:07:03.523Z,12.20
2022-08-03T12:09:35.384Z,13.85
2022-08-03T12:12:05.435Z,13.90
2022-08-03T12:14:49.910Z,15.75
2022-08-03T12:17:22.222Z,19.05
2022-08-03T12:19:52.303Z,14.55
2022-08-03T12:22:34.201Z,11.98
2022-08-03T12:25:03.804Z,12.23
2022-08-03T12:27:33.815Z,12.73
2022-08-03T12:30:04.599Z,14.88
2022-08-03T12:32:33.994Z,12.88
2022-08-03T12:35:05.772Z,14.30
2022-08-03T12:37:35.599Z,13.88
2022-08-03T12:40:10.630Z,11.60
2022-08-03T12:42:42.110Z,18.25
2022-08-03T12:45:40.974Z,15.15
2022-08-03T12:48:13.041Z,12.60
2022-08-03T12:50:42.752Z,15.93
2022-08-03T12:53:12.370Z,12.20
2022-08-03T12:55:57.574Z,12.55
2022-08-03T12:58:38.069Z,13.60
2022-08-03T13:01:10.770Z,11.93
2022-08-03T13:03:45.834Z,13.85
2022-08-03T13:06:27.919Z,11.80
2022-08-03T13:09:08.950Z,13.98
2022-08-03T13:11:57.511Z,13.55
2022-08-03T13:14:28.226Z,13.75
2022-08-03T13:16:57.576Z,15.00
2022-08-03T13:19:26.996Z,15.63
2022-08-03T13:22:03.265Z,14.85
2022-08-03T13:24:35.425Z,16.83
2022-08-03T13:28:02.292Z,17.75
2022-08-03T13:29:59.053Z,18.55
2022-08-03T13:32:40.204Z,17.52
2022-08-03T13:35:30.985Z,19.98
2022-08-03T13:38:00.442Z,21.48
2022-08-03T13:40:36.761Z,20.30
2022-08-03T13:43:11.439Z,20.77
2022-08-03T13:45:42.864Z,24.10
2022-08-03T13:48:15.395Z,24.88
2022-08-03T13:51:21.847Z,30.55
2022-08-03T13:53:53.408Z,29.63
2022-08-03T13:56:23.245Z,31.92
2022-08-03T13:58:52.575Z,29.83
2022-08-03T14:01:53.677Z,29.75
2022-08-03T14:04:21.824Z,31.08
2022-08-03T14:06:52.122Z,33.03
2022-08-03T14:09:21.796Z,34.83
2022-08-03T14:12:07.045Z,38.17
2022-08-03T14:14:37.507Z,39.47
2022-08-03T14:17:07.008Z,41.10
2022-08-03T14:19:53.392Z,39.08
2022-08-03T14:22:24.027Z,38.78
2022-08-03T14:24:53.348Z,38.75
2022-08-03T14:27:23.106Z,37.95
2022-08-03T14:29:52.924Z,37.33
2022-08-03T14:32:22.675Z,41.10
2022-08-03T14:34:52.021Z,37.38
2022-08-03T14:37:21.871Z,36.92
2022-08-03T14:39:59.928Z,36.75
2022-08-03T14:42:30.245Z,36.10
2022-08-03T14:45:04.614Z,38.63
2022-08-03T14:49:00.889Z,37.45
2022-08-03T14:50:30.177Z,39.92
2022-08-03T14:55:38.827Z,41.60
2022-08-03T14:58:21.852Z,36.47
2022-08-03T15:00:53.349Z,36.80
2022-08-03T15:03:26.907Z,33.50
2022-08-03T15:05:58.206Z,31.58
2022-08-03T15:08:28.419Z,25.80
2022-08-03T15:10:57.751Z,25.30
2022-08-03T15:13:27.962Z,24.02
2022-08-03T15:15:58.971Z,25.83
2022-08-03T15:18:28.515Z,23.27
2022-08-03T15:20:57.516Z,23.67
2022-08-03T15:23:27.655Z,22.08
2022-08-03T15:26:04.010Z,21.38
2022-08-03T15:28:50.377Z,23.83
2022-08-03T15:31:24.518Z,24.55
2022-08-03T15:33:53.846Z,23.48
2022-08-03T15:36:23.829Z,23.58
2022-08-03T15:38:54.587Z,22.90
2022-08-03T15:41:24.214Z,20.95
2022-08-03T15:43:54.557Z,21.63
2022-08-03T15:46:29.626Z,19.73
2022-08-03T15:49:00.356Z,19.95
2022-08-03T15:51:29.787Z,19.77
2022-08-03T15:53:59.273Z,20.23
2022-08-03T15:56:28.629Z,19.40
2022-08-03T15:59:13.299Z,18.67
2022-08-03T16:01:44.199Z,20.23
2022-08-03T16:04:13.836Z,19.90
2022-08-03T16:06:43.085Z,19.00
2022-08-03T16:09:23.521Z,19.77
2022-08-03T16:12:02.319Z,19.40
2022-08-03T16:14:38.928Z,19.50
2022-08-03T16:17:16.401Z,20.33
2022-08-03T16:19:45.584Z,21.00
2022-08-03T16:22:15.134Z,21.05
2022-08-03T16:24:44.449Z,21.75
2022-08-03T16:27:36.596Z,20.10
2022-08-03T16:30:05.040Z,20.13
2022-08-03T16:32:35.185Z,21.75
2022-08-03T16:35:04.478Z,20.38
2022-08-03T16:37:38.641Z,19.58
2022-08-03T16:40:17.670Z,18.80
2022-08-03T16:42:49.101Z,19.77
2022-08-03T16:45:19.190Z,18.73
2022-08-03T16:48:01.276Z,18.00
2022-08-03T16:50:35.437Z,18.50
2022-08-03T16:53:10.126Z,16.98
2022-08-03T16:55:54.136Z,17.10
2022-08-03T16:58:41.494Z,17.48
2022-08-03T17:01:21.542Z,18.10
2022-08-03T17:04:03.072Z,18.33
2022-08-03T17:06:44.943Z,16.58
2022-08-03T17:09:18.127Z,17.45
2022-08-03T17:11:50.540Z,18.35
2022-08-03T17:14:28.280Z,20.40
2022-08-03T17:17:02.486Z,16.65
2022-08-03T17:19:37.570Z,17.92
2022-08-03T17:22:14.271Z,17.23
2022-08-03T17:24:53.525Z,18.45
2022-08-03T17:28:48.946Z,18.55
2022-08-03T17:30:21.128Z,18.92
2022-08-03T17:32:57.489Z,17.30
2022-08-03T17:35:36.459Z,17.60
2022-08-03T17:38:13.587Z,19.58
2022-08-03T17:40:49.964Z,19.70
2022-08-03T17:43:44.365Z,18.38
2022-08-03T17:46:12.271Z,20.42
2022-08-03T17:48:43.003Z,20.08
2022-08-03T17:51:32.325Z,20.30
2022-08-03T17:54:18.482Z,20.65
2022-08-03T17:57:27.269Z,19.02
2022-08-03T18:00:32.662Z,20.48
2022-08-03T18:03:22.922Z,19.05
2022-08-03T18:06:11.500Z,20.45
2022-08-03T18:08:57.578Z,20.33
2022-08-03T18:11:35.586Z,21.40
2022-08-03T18:14:23.852Z,21.70
2022-08-03T18:17:17.024Z,24.08
2022-08-03T18:22:37.739Z,25.08
2022-08-03T18:25:13.251Z,25.52
2022-08-03T18:27:45.726Z,27.58
2022-08-03T18:30:16.785Z,27.13
2022-08-03T18:33:00.842Z,27.60
2022-08-03T18:35:53.689Z,28.05
2022-08-03T18:38:24.793Z,28.83
2022-08-03T18:40:54.907Z,28.05
2022-08-03T18:43:46.375Z,30.05
2022-08-03T18:46:52.735Z,28.70
2022-08-03T18:49:53.726Z,30.88
2022-08-03T18:52:52.857Z,28.25
2022-08-03T18:55:33.668Z,30.13
2022-08-03T18:58:17.826Z,32.63
2022-08-03T19:01:03.482Z,34.90
2022-08-03T19:03:42.875Z,32.42
2022-08-03T19:06:21.131Z,30.95
2022-08-03T19:09:05.433Z,32.13
2022-08-03T19:12:12.741Z,32.20
2022-08-03T19:14:50.727Z,30.70
2022-08-03T19:17:23.456Z,30.50
2022-08-03T19:20:01.567Z,33.67
2022-08-03T19:22:32.151Z,31.55
2022-08-03T19:25:03.714Z,31.25
2022-08-03T19:27:33.761Z,31.45
2022-08-03T19:30:14.134Z,32.20
2022-08-03T19:32:53.520Z,30.70
2022-08-03T19:35:27.461Z,31.15
2022-08-03T19:38:12.907Z,29.63
2022-08-03T19:40:51.127Z,31.20
2022-08-03T19:43:32.922Z,29.27
2022-08-03T19:46:21.192Z,30.55
2022-08-03T19:48:57.177Z,28.35
2022-08-03T19:52:00.654Z,28.45
2022-08-03T19:54:29.854Z,29.13
2022-08-03T19:57:04.755Z,28.20
2022-08-03T20:02:26.598Z,28.20
2022-08-03T20:04:59.806Z,30.50
2022-08-03T20:07:34.308Z,29.83
2022-08-03T20:10:06.985Z,29.88
2022-08-03T20:12:39.393Z,28.02
2022-08-03T20:17:54.398Z,27.38
2022-08-03T20:20:34.780Z,28.02
2022-08-03T20:23:12.797Z,27.92
2022-08-03T20:25:57.151Z,28.83
2022-08-03T20:28:51.401Z,25.92
2022-08-03T20:31:32.115Z,26.27
2022-08-03T20:34:09.130Z,27.25
2022-08-03T20:36:38.706Z,26.27
2022-08-03T20:39:09.128Z,26.65
2022-08-03T20:41:39.995Z,27.77
2022-08-03T20:44:09.571Z,27.50
2022-08-03T20:46:56.300Z,29.25
2022-08-03T20:49:29.581Z,27.67
2022-08-03T20:52:18.717Z,28.30
2022-08-03T20:54:49.540Z,27.33
2022-08-03T20:57:19.663Z,26.77
2022-08-03T20:59:51.395Z,28.20
2022-08-03T21:02:40.792Z,27.42
2022-08-03T21:05:11.877Z,27.10
2022-08-03T21:08:05.050Z,28.05
2022-08-03T21:10:42.099Z,27.48
2022-08-03T21:12:57.649Z,22.55
2022-08-03T21:16:12.099Z,28.88
2022-08-03T21:18:53.586Z,30.65
2022-08-03T21:21:25.207Z,29.55
2022-08-03T21:23:56.608Z,29.73
2022-08-03T21:26:28.484Z,28.42
2022-08-03T21:28:58.554Z,29.58
2022-08-03T21:31:28.487Z,28.30
2022-08-03T21:34:01.511Z,27.08
2022-08-03T21:36:33.550Z,29.15
2022-08-03T21:39:06.453Z,26.67
2022-08-03T21:41:37.251Z,27.10
2022-08-03T21:44:07.440Z,25.95
2022-08-03T21:46:42.137Z,28.25
2022-08-03T21:49:51.798Z,25.77
2022-08-03T21:52:07.343Z,25.70
2022-08-03T21:54:39.624Z,24.60
2022-08-03T21:57:30.726Z,23.73
2022-08-03T22:00:16.515Z,22.67
2022-08-03T22:02:58.250Z,21.30
2022-08-03T22:05:43.715Z,22.80
2022-08-03T22:08:17.172Z,22.10
2022-08-03T22:10:47.624Z,20.92
2022-08-03T22:13:43.082Z,21.73
2022-08-03T22:16:09.870Z,20.83
2022-08-03T22:18:41.638Z,20.88
2022-08-03T22:21:28.000Z,19.77
2022-08-03T22:24:07.572Z,20.60
2022-08-03T22:26:41.175Z,22.23
2022-08-03T22:29:10.925Z,23.73
2022-08-03T22:31:59.138Z,21.80
2022-08-03T22:34:30.989Z,21.73
2022-08-03T22:37:05.128Z,23.20
2022-08-03T22:39:36.576Z,21.88
2022-08-03T22:42:07.625Z,21.90
2022-08-03T22:44:38.102Z,22.92
2022-08-03T22:47:08.315Z,24.90
2022-08-03T22:49:39.029Z,24.15
2022-08-03T22:52:09.755Z,23.58
2022-08-03T22:54:39.569Z,24.40
2022-08-03T22:57:10.153Z,23.98
2022-08-03T22:59:42.088Z,23.77
2022-08-03T23:02:21.780Z,22.70
2022-08-03T23:04:53.519Z,24.02
2022-08-03T23:07:32.682Z,22.80
2022-08-03T23:10:08.276Z,24.05
2022-08-03T23:12:39.609Z,25.27
2022-08-03T23:15:14.012Z,23.60
2022-08-03T23:17:59.001Z,24.38
2022-08-03T23:20:29.211Z,22.63
2022-08-03T23:22:59.283Z,25.45
2022-08-03T23:25:29.695Z,24.75
2022-08-03T23:28:04.848Z,24.55
2022-08-03T23:30:39.583Z,23.00
2022-08-03T23:33:14.794Z,24.42
2022-08-03T23:36:29.821Z,23.60
2022-08-03T23:38:52.462Z,25.33
2022-08-03T23:41:22.656Z,23.55
2022-08-03T23:43:54.422Z,23.80
2022-08-03T23:46:25.852Z,24.92
2022-08-03T23:48:56.685Z,24.67
2022-08-03T23:51:32.567Z,24.38
2022-08-03T23:54:15.210Z,24.23
2022-08-03T23:57:06.430Z,25.00
2022-08-03T23:59:54.088Z,26.52
